createdAt,value
2017-11-15T00:01:27.204Z,10.17
2017-11-15T00:03:53.142Z,10.31
2017-11-15T00:06:19.082Z,10.24
2017-11-15T00:08:45.013Z,10.19
2017-11-15T00:11:10.970Z,10.16
2017-11-15T00:13:36.920Z,10.21
2017-11-15T00:16:02.894Z,10.16
2017-11-15T00:18:28.841Z,10.17
2017-11-15T00:20:54.790Z,10.20
2017-11-15T00:23:20.715Z,10.15
2017-11-15T00:25:46.642Z,10.05
2017-11-15T00:28:12.586Z,10.05
2017-11-15T00:30:38.537Z,10.11
2017-11-15T00:33:04.473Z,10.04
2017-11-15T00:35:30.420Z,10.10
2017-11-15T00:37:56.364Z,10.12
2017-11-15T00:40:22.293Z,10.16
2017-11-15T00:42:48.245Z,10.21
2017-11-15T00:45:14.194Z,10.18
2017-11-15T00:47:40.147Z,10.13
2017-11-15T00:50:06.075Z,10.05
2017-11-15T00:52:32.004Z,10.14
2017-11-15T00:54:57.945Z,10.16
2017-11-15T00:57:23.896Z,10.12
2017-11-15T00:59:49.841Z,10.14
2017-11-15T01:02:15.770Z,10.11
2017-11-15T01:04:41.731Z,10.25
2017-11-15T01:07:07.674Z,10.27
2017-11-15T01:09:33.636Z,10.15
2017-11-15T01:11:59.574Z,10.19
2017-11-15T01:14:25.522Z,9.98
2017-11-15T01:16:51.484Z,10.04
2017-11-15T01:19:17.428Z,10.17
2017-11-15T01:21:43.366Z,10.12
2017-11-15T01:24:09.370Z,10.18
2017-11-15T01:26:35.292Z,10.16
2017-11-15T01:29:01.278Z,10.15
2017-11-15T01:31:27.237Z,10.26
2017-11-15T01:33:53.162Z,10.18
2017-11-15T01:36:19.188Z,10.27
2017-11-15T01:38:45.126Z,10.27
2017-11-15T01:41:11.077Z,10.22
2017-11-15T01:43:37.030Z,10.20
2017-11-15T01:46:02.989Z,10.19
2017-11-15T01:48:28.937Z,10.25
2017-11-15T01:50:54.885Z,10.21
2017-11-15T01:53:20.816Z,10.15
2017-11-15T01:55:46.744Z,10.26
2017-11-15T01:58:12.687Z,10.23
2017-11-15T02:03:11.006Z,10.18
2017-11-15T02:05:36.959Z,9.99
2017-11-15T02:08:02.892Z,10.20
2017-11-15T02:10:28.819Z,10.19
2017-11-15T02:12:54.767Z,10.09
2017-11-15T02:15:20.706Z,10.11
2017-11-15T02:17:46.646Z,10.14
2017-11-15T02:20:12.583Z,10.05
2017-11-15T02:22:38.539Z,10.19
2017-11-15T02:25:04.474Z,10.08
2017-11-15T02:27:30.422Z,10.12
2017-11-15T02:29:56.365Z,10.14
2017-11-15T02:32:22.305Z,10.11
2017-11-15T02:34:48.268Z,10.12
2017-11-15T02:37:14.219Z,10.14
2017-11-15T02:39:40.166Z,10.06
2017-11-15T02:42:06.112Z,10.02
2017-11-15T02:44:32.040Z,10.10
2017-11-15T02:46:58.086Z,10.05
2017-11-15T02:49:24.022Z,10.12
2017-11-15T02:51:49.961Z,10.18
2017-11-15T02:54:15.924Z,10.29
2017-11-15T02:56:41.853Z,10.25
2017-11-15T02:59:07.793Z,10.14
2017-11-15T03:01:33.728Z,10.24
2017-11-15T03:03:59.669Z,9.97
2017-11-15T03:06:25.651Z,10.20
2017-11-15T03:08:51.578Z,10.05
2017-11-15T03:11:17.673Z,10.05
2017-11-15T03:13:43.634Z,10.01
2017-11-15T03:16:09.574Z,10.04
2017-11-15T03:18:35.519Z,10.14
2017-11-15T03:21:01.461Z,10.08
2017-11-15T03:23:27.402Z,10.25
2017-11-15T03:25:53.337Z,10.05
2017-11-15T03:28:19.265Z,10.13
2017-11-15T03:30:45.212Z,10.13
2017-11-15T03:33:11.159Z,10.00
2017-11-15T03:35:37.115Z,10.07
2017-11-15T03:38:03.058Z,10.09
2017-11-15T03:40:29.003Z,10.09
2017-11-15T03:42:54.992Z,10.00
2017-11-15T03:45:20.954Z,10.24
2017-11-15T03:47:46.920Z,10.06
2017-11-15T03:50:12.874Z,10.16
2017-11-15T03:52:38.809Z,10.19
2017-11-15T03:55:04.760Z,10.16
2017-11-15T03:57:30.691Z,10.10
2017-11-15T03:59:56.660Z,10.23
2017-11-15T04:02:22.595Z,10.35
2017-11-15T04:04:48.543Z,10.31
2017-11-15T04:07:14.491Z,10.18
2017-11-15T04:09:40.455Z,10.27
2017-11-15T04:12:06.414Z,10.19
2017-11-15T04:14:32.356Z,10.26
2017-11-15T04:16:58.290Z,10.27
2017-11-15T04:19:24.245Z,10.22
2017-11-15T04:21:50.180Z,10.11
2017-11-15T04:24:16.173Z,10.13
2017-11-15T04:26:42.129Z,10.29
2017-11-15T04:29:08.121Z,10.29
2017-11-15T04:31:34.057Z,10.30
2017-11-15T04:34:00.019Z,10.30
2017-11-15T04:36:25.947Z,10.19
2017-11-15T04:38:54.027Z,10.17
2017-11-15T04:41:19.981Z,10.23
2017-11-15T04:43:45.947Z,10.19
2017-11-15T04:46:11.924Z,10.19
2017-11-15T04:48:37.888Z,10.23
2017-11-15T04:51:03.834Z,10.23
2017-11-15T04:53:29.768Z,10.36
2017-11-15T04:55:55.707Z,10.09
2017-11-15T04:58:21.739Z,10.25
2017-11-15T05:00:47.674Z,10.24
2017-11-15T05:03:13.615Z,10.27
2017-11-15T05:05:39.572Z,10.11
2017-11-15T05:08:05.559Z,10.18
2017-11-15T05:10:31.504Z,10.22
2017-11-15T05:12:57.457Z,10.24
2017-11-15T05:15:23.410Z,10.12
2017-11-15T05:17:49.359Z,10.16
2017-11-15T05:20:15.275Z,10.17
2017-11-15T05:22:41.240Z,10.12
2017-11-15T05:25:07.183Z,10.24
2017-11-15T05:27:33.140Z,10.21
2017-11-15T05:29:59.095Z,10.35
2017-11-15T05:32:25.032Z,10.34
2017-11-15T05:34:51.000Z,10.29
2017-11-15T05:37:16.967Z,10.27
2017-11-15T05:39:42.917Z,10.30
2017-11-15T05:42:08.881Z,10.24
2017-11-15T05:44:35.375Z,10.13
2017-11-15T05:47:01.343Z,10.28
2017-11-15T05:49:27.277Z,10.31
2017-11-15T05:51:53.216Z,10.27
2017-11-15T05:54:19.173Z,10.30
2017-11-15T05:56:45.121Z,10.29
2017-11-15T05:59:11.107Z,10.29
2017-11-15T06:01:37.060Z,10.29
2017-11-15T06:04:03.027Z,10.27
2017-11-15T06:06:28.982Z,10.26
2017-11-15T06:08:54.963Z,10.31
2017-11-15T06:11:21.012Z,10.34
2017-11-15T06:13:46.988Z,10.36
2017-11-15T06:16:12.883Z,10.32
2017-11-15T06:18:38.858Z,10.25
2017-11-15T06:21:04.822Z,10.26
2017-11-15T06:23:30.764Z,10.29
2017-11-15T06:25:56.856Z,10.19
2017-11-15T06:28:22.832Z,10.33
2017-11-15T06:30:48.804Z,10.19
2017-11-15T06:33:14.671Z,10.24
2017-11-15T06:35:40.615Z,10.30
2017-11-15T06:38:06.531Z,10.32
2017-11-15T06:40:32.486Z,10.20
2017-11-15T06:42:58.423Z,10.09
2017-11-15T06:45:24.405Z,10.25
2017-11-15T06:47:50.501Z,10.17
2017-11-15T06:50:16.459Z,10.20
2017-11-15T06:52:42.409Z,10.30
2017-11-15T06:55:08.392Z,10.39
2017-11-15T06:57:34.319Z,10.28
2017-11-15T07:00:00.248Z,10.38
2017-11-15T07:02:26.177Z,10.39
2017-11-15T07:04:52.135Z,10.32
2017-11-15T07:07:18.067Z,10.37
2017-11-15T07:09:44.010Z,10.33
2017-11-15T07:12:09.982Z,10.30
2017-11-15T07:14:35.957Z,10.36
2017-11-15T07:17:01.929Z,10.36
2017-11-15T07:19:27.957Z,10.38
2017-11-15T07:21:53.934Z,10.40
2017-11-15T07:24:19.877Z,10.39
2017-11-15T07:26:45.817Z,10.42
2017-11-15T07:29:11.753Z,10.35
2017-11-15T07:31:37.695Z,10.42
2017-11-15T07:34:03.647Z,10.36
2017-11-15T07:36:29.647Z,10.38
2017-11-15T07:38:55.602Z,10.44
2017-11-15T07:41:21.527Z,10.49
2017-11-15T07:43:47.476Z,10.50
2017-11-15T07:46:13.488Z,10.50
2017-11-15T07:48:39.451Z,10.46
2017-11-15T07:51:05.377Z,10.46
2017-11-15T07:53:31.316Z,10.52
2017-11-15T07:55:57.241Z,10.46
2017-11-15T07:58:23.227Z,10.44
2017-11-15T08:00:49.166Z,10.55
2017-11-15T08:03:15.200Z,10.43
2017-11-15T08:05:41.137Z,10.39
2017-11-15T08:08:07.065Z,10.62
2017-11-15T08:10:33.020Z,10.61
2017-11-15T08:12:58.964Z,10.69
2017-11-15T08:15:24.908Z,10.61
2017-11-15T08:17:50.852Z,10.64
2017-11-15T08:20:16.822Z,10.62
2017-11-15T08:22:42.794Z,10.64
2017-11-15T08:25:08.753Z,10.79
2017-11-15T08:27:34.698Z,10.97
2017-11-15T08:30:00.727Z,11.03
2017-11-15T08:32:26.670Z,10.98
2017-11-15T08:34:52.650Z,11.05
2017-11-15T08:37:18.653Z,11.02
2017-11-15T08:39:44.714Z,11.08
2017-11-15T08:42:10.720Z,11.14
2017-11-15T08:44:36.652Z,11.20
2017-11-15T08:47:02.585Z,11.20
2017-11-15T08:49:28.542Z,11.15
2017-11-15T08:51:54.475Z,11.22
2017-11-15T08:54:20.438Z,11.35
2017-11-15T08:56:46.383Z,11.33
2017-11-15T08:59:12.339Z,11.35
2017-11-15T09:01:38.276Z,11.39
2017-11-15T09:04:04.324Z,11.40
2017-11-15T09:06:30.255Z,11.35
2017-11-15T09:08:56.196Z,11.35
2017-11-15T09:11:22.136Z,11.48
2017-11-15T09:13:48.093Z,11.37
2017-11-15T09:16:14.035Z,11.54
2017-11-15T09:18:39.983Z,11.47
2017-11-15T09:21:05.936Z,11.44
2017-11-15T09:23:31.859Z,11.53
2017-11-15T09:25:57.788Z,11.67
2017-11-15T09:28:23.758Z,11.61
2017-11-15T09:30:49.713Z,11.65
2017-11-15T09:33:15.674Z,11.72
2017-11-15T09:35:41.610Z,11.72
2017-11-15T09:38:07.552Z,11.67
2017-11-15T09:40:33.519Z,11.71
2017-11-15T09:42:59.444Z,11.89
2017-11-15T09:45:25.411Z,11.76
2017-11-15T09:47:51.356Z,11.92
2017-11-15T09:50:17.325Z,11.81
2017-11-15T09:52:43.296Z,11.89
2017-11-15T09:55:09.242Z,11.78
2017-11-15T09:57:35.193Z,11.98
2017-11-15T10:00:01.130Z,12.05
2017-11-15T10:02:28.280Z,12.08
2017-11-15T10:04:54.224Z,12.10
2017-11-15T10:07:20.162Z,12.13
2017-11-15T10:09:46.132Z,12.12
2017-11-15T10:12:12.076Z,12.16
2017-11-15T10:14:38.016Z,12.20
2017-11-15T10:17:04.525Z,12.13
2017-11-15T10:19:30.657Z,12.15
2017-11-15T10:21:56.592Z,12.26
2017-11-15T10:24:22.516Z,12.18
2017-11-15T10:26:48.451Z,12.04
2017-11-15T10:29:14.402Z,12.19
2017-11-15T10:31:40.334Z,12.32
2017-11-15T10:34:06.259Z,12.36
2017-11-15T10:36:32.197Z,12.35
2017-11-15T10:38:58.136Z,12.31
2017-11-15T10:41:24.077Z,12.37
2017-11-15T10:43:50.022Z,12.39
2017-11-15T10:46:15.973Z,12.53
2017-11-15T10:48:41.924Z,12.37
2017-11-15T10:51:07.911Z,12.44
2017-11-15T10:53:33.882Z,12.23
2017-11-15T10:55:59.842Z,12.32
2017-11-15T10:58:25.777Z,12.28
2017-11-15T11:00:51.726Z,12.21
2017-11-15T11:03:17.694Z,12.28
2017-11-15T11:05:43.626Z,12.32
2017-11-15T11:08:09.637Z,12.22
2017-11-15T11:10:35.580Z,12.33
2017-11-15T11:13:01.530Z,12.31
2017-11-15T11:15:27.489Z,12.35
2017-11-15T11:17:53.427Z,12.30
2017-11-15T11:20:19.375Z,12.29
2017-11-15T11:22:45.312Z,12.29
2017-11-15T11:25:11.268Z,12.32
2017-11-15T11:27:37.203Z,12.26
2017-11-15T11:30:03.147Z,12.26
2017-11-15T11:32:29.090Z,12.37
2017-11-15T11:34:55.044Z,12.34
2017-11-15T11:37:20.987Z,12.33
2017-11-15T11:39:47.083Z,12.23
2017-11-15T11:42:13.027Z,12.48
2017-11-15T11:44:38.997Z,12.41
2017-11-15T11:47:04.955Z,12.37
2017-11-15T11:49:30.896Z,12.27
2017-11-15T11:51:56.850Z,12.33
2017-11-15T11:54:22.815Z,12.35
2017-11-15T11:56:48.760Z,12.37
2017-11-15T11:59:14.688Z,12.42
2017-11-15T12:01:40.632Z,12.46
2017-11-15T12:04:06.584Z,12.40
2017-11-15T12:06:32.515Z,12.48
2017-11-15T12:08:58.446Z,12.52
2017-11-15T12:11:24.392Z,12.49
2017-11-15T12:13:50.361Z,12.50
2017-11-15T12:16:16.329Z,12.48
2017-11-15T12:18:42.433Z,12.42
2017-11-15T12:21:08.616Z,12.43
2017-11-15T12:23:34.577Z,12.35
2017-11-15T12:26:00.526Z,12.37
2017-11-15T12:28:26.498Z,12.33
2017-11-15T12:30:52.467Z,12.36
2017-11-15T12:33:18.413Z,12.43
2017-11-15T12:35:44.345Z,12.41
2017-11-15T12:38:10.277Z,12.48
2017-11-15T12:40:36.240Z,12.39
2017-11-15T12:43:02.168Z,12.37
2017-11-15T12:45:28.101Z,12.44
2017-11-15T12:47:54.047Z,12.32
2017-11-15T12:50:19.976Z,12.38
2017-11-15T12:52:45.919Z,12.32
2017-11-15T12:55:11.861Z,12.38
2017-11-15T12:57:37.813Z,12.31
2017-11-15T13:00:03.751Z,12.28
2017-11-15T13:02:29.762Z,12.37
2017-11-15T13:04:55.724Z,12.25
2017-11-15T13:07:21.666Z,12.22
2017-11-15T13:09:47.647Z,12.25
2017-11-15T13:12:13.594Z,12.32
2017-11-15T13:14:39.535Z,12.44
2017-11-15T13:17:05.492Z,12.34
2017-11-15T13:19:31.449Z,12.20
2017-11-15T13:21:57.382Z,12.38
2017-11-15T13:24:23.339Z,12.49
2017-11-15T13:26:49.301Z,12.42
2017-11-15T13:29:15.262Z,12.33
2017-11-15T13:31:41.214Z,12.47
2017-11-15T13:34:07.202Z,12.54
2017-11-15T13:36:33.163Z,12.48
2017-11-15T13:38:59.089Z,12.48
2017-11-15T13:41:25.015Z,12.33
2017-11-15T13:43:50.957Z,12.36
2017-11-15T13:46:16.918Z,12.47
2017-11-15T13:48:42.872Z,12.42
2017-11-15T13:51:08.830Z,12.39
2017-11-15T13:53:34.766Z,12.35
2017-11-15T13:56:00.720Z,12.38
2017-11-15T13:58:26.660Z,12.41
2017-11-15T14:00:52.590Z,12.46
2017-11-15T14:03:18.532Z,12.35
2017-11-15T14:05:44.487Z,12.27
2017-11-15T14:08:10.427Z,12.30
2017-11-15T14:10:36.380Z,12.37
2017-11-15T14:13:02.326Z,12.31
2017-11-15T14:15:28.294Z,12.32
2017-11-15T14:17:54.249Z,12.45
2017-11-15T14:20:20.201Z,12.48
2017-11-15T14:22:46.143Z,12.45
2017-11-15T14:25:12.082Z,12.35
2017-11-15T14:27:38.023Z,12.29
2017-11-15T14:30:03.978Z,12.28
2017-11-15T14:32:29.940Z,12.26
2017-11-15T14:34:55.902Z,12.25
2017-11-15T14:37:21.849Z,12.32
2017-11-15T14:39:47.797Z,12.29
2017-11-15T14:42:13.769Z,12.38
2017-11-15T14:44:39.702Z,12.25
2017-11-15T14:47:05.662Z,12.26
2017-11-15T14:49:31.609Z,12.18
2017-11-15T14:51:57.557Z,12.18
2017-11-15T14:54:23.502Z,12.23
2017-11-15T14:56:49.460Z,12.30
2017-11-15T14:59:15.417Z,12.27
2017-11-15T15:01:41.357Z,12.33
2017-11-15T15:04:07.350Z,12.48
2017-11-15T15:06:33.298Z,12.28
2017-11-15T15:08:59.240Z,12.23
2017-11-15T15:11:25.183Z,12.24
2017-11-15T15:13:51.132Z,12.22
2017-11-15T15:16:17.084Z,12.18
2017-11-15T15:18:43.045Z,12.23
2017-11-15T15:21:08.989Z,12.14
2017-11-15T15:23:34.952Z,12.34
2017-11-15T15:26:00.898Z,12.38
2017-11-15T15:28:26.842Z,12.30
2017-11-15T15:30:52.780Z,12.19
2017-11-15T15:33:18.731Z,12.13
2017-11-15T15:35:44.698Z,12.27
2017-11-15T15:38:10.709Z,12.20
2017-11-15T15:40:36.693Z,12.08
2017-11-15T15:43:02.644Z,11.97
2017-11-15T15:45:28.625Z,12.01
2017-11-15T15:47:54.579Z,12.01
2017-11-15T15:50:20.543Z,12.00
2017-11-15T15:52:46.491Z,12.03
2017-11-15T15:55:12.449Z,12.03
2017-11-15T15:57:39.138Z,12.02
2017-11-15T16:00:05.301Z,12.06
2017-11-15T16:02:31.262Z,11.86
2017-11-15T16:04:57.261Z,11.94
2017-11-15T16:07:23.216Z,11.93
2017-11-15T16:09:49.247Z,11.93
2017-11-15T16:12:15.219Z,11.94
2017-11-15T16:14:41.244Z,12.09
2017-11-15T16:17:07.189Z,12.14
2017-11-15T16:19:33.165Z,12.10
2017-11-15T16:21:59.108Z,12.11
2017-11-15T16:24:25.070Z,12.14
2017-11-15T16:26:51.026Z,12.07
2017-11-15T16:29:16.997Z,12.09
2017-11-15T16:31:42.970Z,12.11
2017-11-15T16:34:08.913Z,11.96
2017-11-15T16:36:34.980Z,12.03
2017-11-15T16:39:00.938Z,11.91
2017-11-15T16:41:26.901Z,11.98
2017-11-15T16:43:52.861Z,12.02
2017-11-15T16:46:18.883Z,12.02
2017-11-15T16:48:44.830Z,12.10
2017-11-15T16:51:10.771Z,12.02
2017-11-15T16:53:36.749Z,11.99
2017-11-15T16:56:02.733Z,12.02
2017-11-15T16:58:28.685Z,12.03
2017-11-15T17:00:54.629Z,11.98
2017-11-15T17:03:20.703Z,12.15
2017-11-15T17:05:46.921Z,12.10
2017-11-15T17:08:12.901Z,11.97
2017-11-15T17:10:38.835Z,11.93
2017-11-15T17:13:04.769Z,12.04
2017-11-15T17:15:30.721Z,11.94
2017-11-15T17:17:56.660Z,11.96
2017-11-15T17:20:22.611Z,12.03
2017-11-15T17:22:48.593Z,12.00
2017-11-15T17:25:14.631Z,11.93
2017-11-15T17:27:40.583Z,12.04
2017-11-15T17:30:06.573Z,12.00
2017-11-15T17:32:32.580Z,12.08
2017-11-15T17:34:58.599Z,12.12
2017-11-15T17:37:24.542Z,12.07
2017-11-15T17:39:50.506Z,12.04
2017-11-15T17:42:16.702Z,12.00
2017-11-15T17:44:42.742Z,11.98
2017-11-15T17:47:08.702Z,11.97
2017-11-15T17:49:34.654Z,11.90
2017-11-15T17:52:00.638Z,12.02
2017-11-15T17:54:26.615Z,12.03
2017-11-15T17:56:52.560Z,11.96
2017-11-15T17:59:18.578Z,11.96
2017-11-15T18:01:44.519Z,11.99
2017-11-15T18:04:10.469Z,12.02
2017-11-15T18:06:36.405Z,12.08
2017-11-15T18:09:03.386Z,12.04
2017-11-15T18:11:29.326Z,12.10
2017-11-15T18:13:55.291Z,12.14
2017-11-15T18:16:21.264Z,12.18
2017-11-15T18:18:47.216Z,12.03
2017-11-15T18:21:13.169Z,12.06
2017-11-15T18:23:39.159Z,12.26
2017-11-15T18:26:05.100Z,12.20
2017-11-15T18:28:31.048Z,12.10
2017-11-15T18:30:57.018Z,12.17
2017-11-15T18:33:22.962Z,12.08
2017-11-15T18:35:48.905Z,12.17
2017-11-15T18:38:14.842Z,12.03
2017-11-15T18:40:40.798Z,12.15
2017-11-15T18:43:06.795Z,12.20
2017-11-15T18:45:32.780Z,12.14
2017-11-15T18:47:58.716Z,11.97
2017-11-15T18:50:24.643Z,12.03
2017-11-15T18:52:50.601Z,11.93
2017-11-15T18:55:16.560Z,12.00
2017-11-15T18:57:42.511Z,12.03
2017-11-15T19:00:08.464Z,11.97
2017-11-15T19:02:34.579Z,12.03
2017-11-15T19:05:00.530Z,12.15
2017-11-15T19:07:26.495Z,12.08
2017-11-15T19:09:52.437Z,11.97
2017-11-15T19:12:18.374Z,12.03
2017-11-15T19:14:44.316Z,12.05
2017-11-15T19:17:10.275Z,12.01
2017-11-15T19:19:36.220Z,12.02
2017-11-15T19:22:02.157Z,12.03
2017-11-15T19:24:28.101Z,12.00
2017-11-15T19:26:54.075Z,12.04
2017-11-15T19:29:20.016Z,11.99
2017-11-15T19:31:45.984Z,11.92
2017-11-15T19:34:11.922Z,11.91
2017-11-15T19:36:37.964Z,12.00
2017-11-15T19:39:04.068Z,11.91
2017-11-15T19:41:30.013Z,11.88
2017-11-15T19:43:56.305Z,11.98
2017-11-15T19:46:22.263Z,11.93
2017-11-15T19:48:48.222Z,11.99
2017-11-15T19:51:14.160Z,11.98
2017-11-15T19:53:40.184Z,12.00
2017-11-15T19:56:06.144Z,11.92
2017-11-15T19:58:32.074Z,11.90
2017-11-15T20:00:58.112Z,11.92
2017-11-15T20:03:24.059Z,11.90
2017-11-15T20:05:50.402Z,11.92
2017-11-15T20:08:16.391Z,11.82
2017-11-15T20:10:42.414Z,11.84
2017-11-15T20:13:08.364Z,11.88
2017-11-15T20:15:34.321Z,11.86
2017-11-15T20:18:00.266Z,11.91
2017-11-15T20:20:26.350Z,11.72
2017-11-15T20:22:52.598Z,11.74
2017-11-15T20:25:19.638Z,11.91
2017-11-15T20:27:45.651Z,11.79
2017-11-15T20:30:11.625Z,11.75
2017-11-15T20:32:37.580Z,11.73
2017-11-15T20:35:03.522Z,11.75
2017-11-15T20:37:29.465Z,11.64
2017-11-15T20:39:55.418Z,11.48
2017-11-15T20:42:21.350Z,11.39
2017-11-15T20:44:48.030Z,11.49
2017-11-15T20:47:14.050Z,11.34
2017-11-15T20:49:40.024Z,11.34
2017-11-15T20:52:06.017Z,11.38
2017-11-15T20:54:32.032Z,11.50
2017-11-15T20:56:58.144Z,11.35
2017-11-15T20:59:24.135Z,11.51
2017-11-15T21:01:50.080Z,11.42
2017-11-15T21:04:16.063Z,11.32
2017-11-15T21:06:42.028Z,11.32
2017-11-15T21:09:08.248Z,11.34
2017-11-15T21:11:34.220Z,11.31
2017-11-15T21:14:00.200Z,11.23
2017-11-15T21:16:26.164Z,11.25
2017-11-15T21:18:52.186Z,11.01
2017-11-15T21:21:18.192Z,11.20
2017-11-15T21:23:44.576Z,11.15
2017-11-15T21:26:10.608Z,11.23
2017-11-15T21:28:36.644Z,11.16
2017-11-15T21:31:02.606Z,11.30
2017-11-15T21:33:28.579Z,11.18
2017-11-15T21:35:54.608Z,11.16
2017-11-15T21:38:20.613Z,11.18
2017-11-15T21:40:46.673Z,11.05
2017-11-15T21:43:12.942Z,11.26
2017-11-15T21:45:38.903Z,11.26
2017-11-15T21:48:04.910Z,11.15
2017-11-15T21:50:30.861Z,11.11
2017-11-15T21:52:56.846Z,11.29
2017-11-15T21:55:22.808Z,11.17
2017-11-15T21:57:48.765Z,11.13
2017-11-15T22:00:14.754Z,11.14
2017-11-15T22:02:40.714Z,11.04
2017-11-15T22:05:06.678Z,11.05
2017-11-15T22:07:32.675Z,11.09
2017-11-15T22:09:58.660Z,11.04
2017-11-15T22:12:24.643Z,11.03
2017-11-15T22:14:50.671Z,11.13
2017-11-15T22:17:16.697Z,10.97
2017-11-15T22:19:42.719Z,10.94
2017-11-15T22:22:08.695Z,11.03
2017-11-15T22:24:34.697Z,10.93
2017-11-15T22:27:00.655Z,10.89
2017-11-15T22:29:26.616Z,10.96
2017-11-15T22:31:52.565Z,10.94
2017-11-15T22:34:18.533Z,11.04
2017-11-15T22:36:44.566Z,11.24
2017-11-15T22:39:10.539Z,10.87
2017-11-15T22:41:36.496Z,11.05
2017-11-15T22:44:02.480Z,10.93
2017-11-15T22:46:28.447Z,11.01
2017-11-15T22:48:54.429Z,10.91
2017-11-15T22:51:20.396Z,11.16
2017-11-15T22:53:46.373Z,11.12
2017-11-15T22:56:12.324Z,11.27
2017-11-15T22:58:38.270Z,11.22
2017-11-15T23:01:04.210Z,11.15
2017-11-15T23:03:30.190Z,11.23
2017-11-15T23:05:56.219Z,11.02
2017-11-15T23:08:22.159Z,11.12
2017-11-15T23:10:48.121Z,11.13
2017-11-15T23:13:14.066Z,11.14
2017-11-15T23:15:40.021Z,11.24
2017-11-15T23:18:05.956Z,11.14
2017-11-15T23:20:31.898Z,10.96
2017-11-15T23:22:57.829Z,10.80
2017-11-15T23:25:23.763Z,10.73
2017-11-15T23:27:49.718Z,10.89
2017-11-15T23:30:15.661Z,10.75
2017-11-15T23:32:41.593Z,10.71
2017-11-15T23:35:07.540Z,10.85
2017-11-15T23:37:33.494Z,11.02
2017-11-15T23:39:59.453Z,11.09
2017-11-15T23:42:25.395Z,11.07
2017-11-15T23:44:51.336Z,10.99
2017-11-15T23:47:17.327Z,10.99
2017-11-15T23:49:43.289Z,11.12
2017-11-15T23:52:09.244Z,11.08
2017-11-15T23:54:35.200Z,11.02
2017-11-15T23:57:01.156Z,10.93
2017-11-15T23:59:27.102Z,10.85
